Alianca Shanghai — A8CQ5 — position and weather

sailwx.info

Track history (hours):
 
Tides and Currents Weather Stations Pressure Air Temp Water Temp Dewpoint Dewpoint Depression Visibility Wind Speed Wind Dir Waves Ship Positions

Alianca Shanghai

Last reported at 2016-Nov-27 14:14 UTC. Time now 2016-Dec-04 16:17 UTC.
Position N 09°31' W 013°43'.

Length 199.9 m; beam 29.8 m; draft 11.6 m.

Type: Ship. MMSI: 636016014.

Date/timePositionNaut miles runAvg speedWind from/ knotsBaromVisibWave heightAir tempDewpointWater temp
2016-Nov-27 14:14N 09°31' W 013°43'0 0.0
2016-Nov-27 13:05N 09°31' W 013°43'0 0.0
2016-Nov-27 11:32N 09°31' W 013°43'0 0.0
2016-Nov-27 10:32N 09°31' W 013°43'0 0.0
2016-Nov-27 09:32N 09°31' W 013°43'0 0.0
2016-Nov-27 08:33N 09°31' W 013°43'0 0.0
2016-Nov-27 07:33N 09°31' W 013°43'6 5.5
2016-Nov-27 06:33N 09°25' W 013°44'1313.2
2016-Nov-27 05:33N 09°13' W 013°50'7 6.6
2016-Nov-27 04:33N 09°18' W 013°45'3 2.6
2016-Nov-27 03:33N 09°20' W 013°44'9 8.9
2016-Nov-27 02:33N 09°20' W 013°53'10 8.8
2016-Nov-27 01:22N 09°20' W 014°03'7 8.9
2016-Nov-27 00:32N 09°19' W 014°11'33 4.8
2016-Nov-26 17:33N 09°12' W 014°44'1 0.9
2016-Nov-26 16:30N 09°11' W 014°44'1 1.0
2016-Nov-26 15:05N 09°11' W 014°45'3 0.2
2016-Nov-25 18:26N 09°10' W 014°48'1 1.0
2016-Nov-25 17:34N 09°09' W 014°49'1 0.7
2016-Nov-25 16:33N 09°09' W 014°49'1 0.8
2016-Nov-25 15:32N 09°08' W 014°49'2 0.8
2016-Nov-25 13:31N 09°06' W 014°50'1 0.6
2016-Nov-25 12:33N 09°06' W 014°50'0 0.4
2016-Nov-25 11:30N 09°06' W 014°51'0 0.1
2016-Nov-25 10:33N 09°06' W 014°50'1 1.2
2016-Nov-25 09:33N 09°07' W 014°49'2 1.7
2016-Nov-25 08:14N 09°09' W 014°48'6 8.6
2016-Nov-25 07:32N 09°15' W 014°51'1312.5
2016-Nov-25 06:31N 09°26' W 014°57'  
2016-Nov-21 21:20N 27°42' W 015°20'26 6.8
2016-Nov-21 17:33N 28°08' W 015°25'0 0.0
2016-Nov-21 14:30N 28°08' W 015°25'0 0.0
2016-Nov-21 13:30N 28°08' W 015°25'0 0.0
2016-Nov-21 12:33N 28°08' W 015°25'0 0.0
2016-Nov-21 11:33N 28°08' W 015°25'0 0.0
2016-Nov-21 10:30N 28°08' W 015°25'0 0.0
2016-Nov-21 08:33N 28°08' W 015°25'0 0.0
2016-Nov-21 07:33N 28°08' W 015°25'0 0.0
2016-Nov-21 05:33N 28°08' W 015°25'0 0.0
2016-Nov-21 04:33N 28°08' W 015°25'0 0.0
2016-Nov-21 02:33N 28°08' W 015°25'0 0.0
2016-Nov-21 00:33N 28°08' W 015°25'8 3.8
2016-Nov-20 22:33N 28°12' W 015°17'1615.7
2016-Nov-20 21:33N 28°23' W 015°05'  
Track history (hours):
 
Tides and Currents Weather Stations Pressure Air Temp Water Temp Dewpoint Dewpoint Depression Visibility Wind Speed Wind Dir Waves Ship Positions

Alianca Shanghai

Last reported at 2016-Nov-27 14:14 UTC. Time now 2016-Dec-04 16:17 UTC.
Position N 09°31' W 013°43'.

Length 199.9 m; beam 29.8 m; draft 11.6 m.

Type: Ship. MMSI: 636016014.

Date/timePositionNaut miles runAvg speedWind from/ knotsBaromVisibWave heightAir tempDewpointWater temp
2016-Nov-27 14:14N 09°31' W 013°43'0 0.0
2016-Nov-27 13:05N 09°31' W 013°43'0 0.0
2016-Nov-27 11:32N 09°31' W 013°43'0 0.0
2016-Nov-27 10:32N 09°31' W 013°43'0 0.0
2016-Nov-27 09:32N 09°31' W 013°43'0 0.0
2016-Nov-27 08:33N 09°31' W 013°43'0 0.0
2016-Nov-27 07:33N 09°31' W 013°43'6 5.5
2016-Nov-27 06:33N 09°25' W 013°44'1313.2
2016-Nov-27 05:33N 09°13' W 013°50'7 6.6
2016-Nov-27 04:33N 09°18' W 013°45'3 2.6
2016-Nov-27 03:33N 09°20' W 013°44'9 8.9
2016-Nov-27 02:33N 09°20' W 013°53'10 8.8
2016-Nov-27 01:22N 09°20' W 014°03'7 8.9
2016-Nov-27 00:32N 09°19' W 014°11'33 4.8
2016-Nov-26 17:33N 09°12' W 014°44'1 0.9
2016-Nov-26 16:30N 09°11' W 014°44'1 1.0
2016-Nov-26 15:05N 09°11' W 014°45'3 0.2
2016-Nov-25 18:26N 09°10' W 014°48'1 1.0
2016-Nov-25 17:34N 09°09' W 014°49'1 0.7
2016-Nov-25 16:33N 09°09' W 014°49'1 0.8
2016-Nov-25 15:32N 09°08' W 014°49'2 0.8
2016-Nov-25 13:31N 09°06' W 014°50'1 0.6
2016-Nov-25 12:33N 09°06' W 014°50'0 0.4
2016-Nov-25 11:30N 09°06' W 014°51'0 0.1
2016-Nov-25 10:33N 09°06' W 014°50'1 1.2
2016-Nov-25 09:33N 09°07' W 014°49'2 1.7
2016-Nov-25 08:14N 09°09' W 014°48'6 8.6
2016-Nov-25 07:32N 09°15' W 014°51'1312.5
2016-Nov-25 06:31N 09°26' W 014°57'  
2016-Nov-21 21:20N 27°42' W 015°20'26 6.8
2016-Nov-21 17:33N 28°08' W 015°25'0 0.0
2016-Nov-21 14:30N 28°08' W 015°25'0 0.0
2016-Nov-21 13:30N 28°08' W 015°25'0 0.0
2016-Nov-21 12:33N 28°08' W 015°25'0 0.0
2016-Nov-21 11:33N 28°08' W 015°25'0 0.0
2016-Nov-21 10:30N 28°08' W 015°25'0 0.0
2016-Nov-21 08:33N 28°08' W 015°25'0 0.0
2016-Nov-21 07:33N 28°08' W 015°25'0 0.0
2016-Nov-21 05:33N 28°08' W 015°25'0 0.0
2016-Nov-21 04:33N 28°08' W 015°25'0 0.0
2016-Nov-21 02:33N 28°08' W 015°25'0 0.0
2016-Nov-21 00:33N 28°08' W 015°25'8 3.8
2016-Nov-20 22:33N 28°12' W 015°17'1615.7
2016-Nov-20 21:33N 28°23' W 015°05'  

Dump ship's entire track history